Terminal Aerodrome Forecast
Issued by NWS Dodge City, KS

Home | Current Version | Previous Version | Text Only | Print | Product List | Glossary On
Versions: 1 2 3 4 5 6 7 8 9 10 11 12 13 14 15 16 17
000
FTUS43 KDDC 181356 AAA
TAFDDC
TAF AMD
KDDC 181356Z 1814/1912 34019G36KT P6SM SCT015 OVC023
     FM182200 33017KT P6SM SKC
     FM190100 32008KT P6SM SKC=

USA.gov is the U.S. government's official web portal to all federal, state and local government web resources and services.